Long Lawford, United Kingdom
Current Conditions -  °F | °C
As of 2:50 PM on Tuesday 21 Oct 2014 (Local Time) from EGBE Reporting Station
Rain Showers Rain Showers  
Wind Chill: 54°   Ceiling: Unl
Heat Index: 54°   Visibility: 6mi
Dew Point: 39°   Wind: 24mph
Humidity: 58%   Direction: 290°WNW
Pressure: 29.74"   Gusts: 40mph
Location:  52.38°N, 1.31°W
Report Text: EGBE 211350Z 29021G35KT 250V330 9999 VCSH FEW029 SCT040CB 12/04 Q1007
Loading
Personal Weather Stations






























Interactive Weather Map
Tropical Storm Tracking
New forecast layout! Learn more

10-Day Weather Forecast

Advertisements
Track Severe Weather on mobile